sensor_id;sensor_type;location;lat;lon;timestamp;P1;durP1;ratioP1;P2;durP2;ratioP2
1479;SDS011;732;51.698;4.886;2023-04-25T00:02:26;20.73;;;5.30;;
1479;SDS011;732;51.698;4.886;2023-04-25T00:04:55;25.00;;;4.93;;
1479;SDS011;732;51.698;4.886;2023-04-25T00:07:25;13.00;;;4.13;;
1479;SDS011;732;51.698;4.886;2023-04-25T00:09:54;17.30;;;4.67;;
1479;SDS011;732;51.698;4.886;2023-04-25T00:12:23;19.63;;;5.20;;
1479;SDS011;732;51.698;4.886;2023-04-25T00:14:51;23.10;;;4.90;;
1479;SDS011;732;51.698;4.886;2023-04-25T00:17:19;16.50;;;5.17;;
1479;SDS011;732;51.698;4.886;2023-04-25T00:19:48;16.83;;;5.03;;
1479;SDS011;732;51.698;4.886;2023-04-25T00:22:16;18.53;;;5.20;;
1479;SDS011;732;51.698;4.886;2023-04-25T00:24:44;20.20;;;5.23;;
1479;SDS011;732;51.698;4.886;2023-04-25T00:27:13;21.00;;;4.67;;
1479;SDS011;732;51.698;4.886;2023-04-25T00:29:43;18.47;;;4.60;;
1479;SDS011;732;51.698;4.886;2023-04-25T00:32:12;12.80;;;5.00;;
1479;SDS011;732;51.698;4.886;2023-04-25T00:34:40;16.03;;;4.70;;
1479;SDS011;732;51.698;4.886;2023-04-25T00:37:10;18.60;;;5.00;;
1479;SDS011;732;51.698;4.886;2023-04-25T00:39:38;18.33;;;5.60;;
1479;SDS011;732;51.698;4.886;2023-04-25T00:42:08;16.60;;;5.13;;
1479;SDS011;732;51.698;4.886;2023-04-25T00:44:37;21.63;;;5.47;;
1479;SDS011;732;51.698;4.886;2023-04-25T00:47:11;28.23;;;5.33;;
1479;SDS011;732;51.698;4.886;2023-04-25T00:49:39;17.33;;;5.80;;
1479;SDS011;732;51.698;4.886;2023-04-25T00:52:08;21.80;;;6.20;;
1479;SDS011;732;51.698;4.886;2023-04-25T00:54:36;19.47;;;6.37;;
1479;SDS011;732;51.698;4.886;2023-04-25T00:57:05;22.83;;;5.57;;
1479;SDS011;732;51.698;4.886;2023-04-25T00:59:33;18.20;;;5.90;;
1479;SDS011;732;51.698;4.886;2023-04-25T01:02:03;26.80;;;6.73;;
1479;SDS011;732;51.698;4.886;2023-04-25T01:04:35;16.50;;;5.23;;
1479;SDS011;732;51.698;4.886;2023-04-25T01:07:03;14.30;;;5.77;;
1479;SDS011;732;51.698;4.886;2023-04-25T01:09:32;20.47;;;4.67;;
1479;SDS011;732;51.698;4.886;2023-04-25T01:12:00;29.27;;;6.10;;
1479;SDS011;732;51.698;4.886;2023-04-25T01:14:29;20.83;;;5.57;;
1479;SDS011;732;51.698;4.886;2023-04-25T01:16:57;26.23;;;6.03;;
1479;SDS011;732;51.698;4.886;2023-04-25T01:19:26;19.47;;;5.60;;
1479;SDS011;732;51.698;4.886;2023-04-25T01:21:56;22.73;;;6.00;;
1479;SDS011;732;51.698;4.886;2023-04-25T01:24:24;23.53;;;5.60;;
1479;SDS011;732;51.698;4.886;2023-04-25T01:26:54;19.43;;;5.60;;
1479;SDS011;732;51.698;4.886;2023-04-25T01:29:23;21.80;;;5.27;;
1479;SDS011;732;51.698;4.886;2023-04-25T01:31:52;24.50;;;6.70;;
1479;SDS011;732;51.698;4.886;2023-04-25T01:34:21;15.70;;;4.80;;
1479;SDS011;732;51.698;4.886;2023-04-25T01:36:49;28.10;;;7.00;;
1479;SDS011;732;51.698;4.886;2023-04-25T01:39:19;17.70;;;5.00;;
1479;SDS011;732;51.698;4.886;2023-04-25T01:41:48;18.43;;;5.67;;
1479;SDS011;732;51.698;4.886;2023-04-25T01:44:16;33.20;;;5.93;;
1479;SDS011;732;51.698;4.886;2023-04-25T01:46:45;18.40;;;5.30;;
1479;SDS011;732;51.698;4.886;2023-04-25T01:49:13;20.40;;;5.60;;
1479;SDS011;732;51.698;4.886;2023-04-25T01:51:44;20.60;;;5.07;;
1479;SDS011;732;51.698;4.886;2023-04-25T01:54:12;17.30;;;5.27;;
1479;SDS011;732;51.698;4.886;2023-04-25T01:56:42;20.07;;;5.50;;
1479;SDS011;732;51.698;4.886;2023-04-25T01:59:10;20.43;;;6.20;;
1479;SDS011;732;51.698;4.886;2023-04-25T02:01:57;18.47;;;4.53;;
1479;SDS011;732;51.698;4.886;2023-04-25T02:04:31;16.90;;;5.33;;
1479;SDS011;732;51.698;4.886;2023-04-25T02:07:01;19.50;;;5.60;;
1479;SDS011;732;51.698;4.886;2023-04-25T02:09:55;23.03;;;5.57;;
1479;SDS011;732;51.698;4.886;2023-04-25T02:12:27;30.10;;;8.30;;
1479;SDS011;732;51.698;4.886;2023-04-25T02:15:17;13.67;;;4.60;;
1479;SDS011;732;51.698;4.886;2023-04-25T02:17:57;19.33;;;5.50;;
1479;SDS011;732;51.698;4.886;2023-04-25T02:20:28;24.13;;;4.73;;
1479;SDS011;732;51.698;4.886;2023-04-25T02:22:57;20.77;;;5.20;;
1479;SDS011;732;51.698;4.886;2023-04-25T02:25:27;19.83;;;5.23;;
1479;SDS011;732;51.698;4.886;2023-04-25T02:27:56;16.27;;;4.53;;
1479;SDS011;732;51.698;4.886;2023-04-25T02:30:25;19.47;;;5.03;;
1479;SDS011;732;51.698;4.886;2023-04-25T02:32:53;15.50;;;4.87;;
1479;SDS011;732;51.698;4.886;2023-04-25T02:35:21;22.90;;;6.27;;
1479;SDS011;732;51.698;4.886;2023-04-25T02:37:52;22.03;;;5.30;;
1479;SDS011;732;51.698;4.886;2023-04-25T02:40:21;16.03;;;5.03;;
1479;SDS011;732;51.698;4.886;2023-04-25T02:42:49;15.03;;;6.00;;
1479;SDS011;732;51.698;4.886;2023-04-25T02:45:19;18.77;;;5.20;;
1479;SDS011;732;51.698;4.886;2023-04-25T02:47:48;21.50;;;5.83;;
1479;SDS011;732;51.698;4.886;2023-04-25T02:50:19;20.43;;;5.60;;
1479;SDS011;732;51.698;4.886;2023-04-25T02:52:47;17.90;;;5.20;;
1479;SDS011;732;51.698;4.886;2023-04-25T02:55:21;13.00;;;5.83;;
1479;SDS011;732;51.698;4.886;2023-04-25T02:57:53;15.33;;;4.70;;
1479;SDS011;732;51.698;4.886;2023-04-25T03:00:44;15.23;;;5.20;;
1479;SDS011;732;51.698;4.886;2023-04-25T03:03:12;17.83;;;6.00;;
1479;SDS011;732;51.698;4.886;2023-04-25T03:05:44;18.97;;;4.37;;
1479;SDS011;732;51.698;4.886;2023-04-25T03:08:13;14.10;;;4.50;;
1479;SDS011;732;51.698;4.886;2023-04-25T03:10:42;10.67;;;5.13;;
1479;SDS011;732;51.698;4.886;2023-04-25T03:13:12;24.23;;;5.50;;
1479;SDS011;732;51.698;4.886;2023-04-25T03:15:43;17.93;;;5.30;;
1479;SDS011;732;51.698;4.886;2023-04-25T03:18:11;17.57;;;5.33;;
1479;SDS011;732;51.698;4.886;2023-04-25T03:20:40;19.93;;;4.37;;
1479;SDS011;732;51.698;4.886;2023-04-25T03:23:09;14.17;;;5.20;;
1479;SDS011;732;51.698;4.886;2023-04-25T03:25:40;20.07;;;5.40;;
1479;SDS011;732;51.698;4.886;2023-04-25T03:28:09;15.47;;;4.90;;
1479;SDS011;732;51.698;4.886;2023-04-25T03:30:37;17.13;;;4.93;;
1479;SDS011;732;51.698;4.886;2023-04-25T03:33:07;16.00;;;5.37;;
1479;SDS011;732;51.698;4.886;2023-04-25T03:35:35;18.37;;;5.47;;
1479;SDS011;732;51.698;4.886;2023-04-25T03:38:03;10.57;;;4.80;;
1479;SDS011;732;51.698;4.886;2023-04-25T03:40:37;10.73;;;4.40;;
1479;SDS011;732;51.698;4.886;2023-04-25T03:43:26;13.60;;;4.50;;
1479;SDS011;732;51.698;4.886;2023-04-25T03:46:02;14.10;;;5.43;;
1479;SDS011;732;51.698;4.886;2023-04-25T03:48:35;15.80;;;4.40;;
1479;SDS011;732;51.698;4.886;2023-04-25T03:51:04;26.60;;;4.97;;
1479;SDS011;732;51.698;4.886;2023-04-25T03:53:35;17.77;;;4.63;;
1479;SDS011;732;51.698;4.886;2023-04-25T03:56:18;20.57;;;5.00;;
1479;SDS011;732;51.698;4.886;2023-04-25T03:58:53;16.43;;;3.80;;
1479;SDS011;732;51.698;4.886;2023-04-25T04:01:24;9.13;;;3.50;;
1479;SDS011;732;51.698;4.886;2023-04-25T04:03:53;11.83;;;3.33;;
1479;SDS011;732;51.698;4.886;2023-04-25T04:06:23;16.83;;;3.60;;
1479;SDS011;732;51.698;4.886;2023-04-25T04:08:59;17.90;;;5.10;;
1479;SDS011;732;51.698;4.886;2023-04-25T04:11:30;8.20;;;3.17;;
1479;SDS011;732;51.698;4.886;2023-04-25T04:13:58;12.03;;;3.60;;
1479;SDS011;732;51.698;4.886;2023-04-25T04:16:27;16.20;;;3.27;;
1479;SDS011;732;51.698;4.886;2023-04-25T04:18:59;7.33;;;2.33;;
1479;SDS011;732;51.698;4.886;2023-04-25T04:21:28;8.47;;;3.00;;
1479;SDS011;732;51.698;4.886;2023-04-25T04:23:56;12.20;;;3.20;;
1479;SDS011;732;51.698;4.886;2023-04-25T04:26:31;8.63;;;2.60;;
1479;SDS011;732;51.698;4.886;2023-04-25T04:29:08;7.90;;;2.80;;
1479;SDS011;732;51.698;4.886;2023-04-25T04:31:57;11.50;;;2.70;;
1479;SDS011;732;51.698;4.886;2023-04-25T04:34:29;11.50;;;2.67;;
1479;SDS011;732;51.698;4.886;2023-04-25T04:36:58;8.37;;;3.07;;
1479;SDS011;732;51.698;4.886;2023-04-25T04:39:26;13.73;;;3.23;;
1479;SDS011;732;51.698;4.886;2023-04-25T04:42:17;10.30;;;2.57;;
1479;SDS011;732;51.698;4.886;2023-04-25T04:44:56;14.00;;;2.80;;
1479;SDS011;732;51.698;4.886;2023-04-25T04:47:54;6.40;;;2.80;;
1479;SDS011;732;51.698;4.886;2023-04-25T04:50:47;13.93;;;4.07;;
1479;SDS011;732;51.698;4.886;2023-04-25T04:53:44;8.77;;;3.00;;
1479;SDS011;732;51.698;4.886;2023-04-25T04:56:38;7.87;;;2.67;;
1479;SDS011;732;51.698;4.886;2023-04-25T04:59:24;5.97;;;2.60;;
1479;SDS011;732;51.698;4.886;2023-04-25T05:02:07;5.90;;;2.70;;
1479;SDS011;732;51.698;4.886;2023-04-25T05:05:01;12.17;;;3.13;;
1479;SDS011;732;51.698;4.886;2023-04-25T05:07:50;7.37;;;3.33;;
1479;SDS011;732;51.698;4.886;2023-04-25T05:10:39;7.33;;;2.63;;
1479;SDS011;732;51.698;4.886;2023-04-25T05:13:27;11.03;;;2.50;;
1479;SDS011;732;51.698;4.886;2023-04-25T05:15:55;12.00;;;3.47;;
1479;SDS011;732;51.698;4.886;2023-04-25T05:18:34;9.37;;;2.67;;
1479;SDS011;732;51.698;4.886;2023-04-25T05:21:23;8.70;;;3.60;;
1479;SDS011;732;51.698;4.886;2023-04-25T05:24:25;12.90;;;3.00;;
1479;SDS011;732;51.698;4.886;2023-04-25T05:27:16;10.93;;;2.87;;
1479;SDS011;732;51.698;4.886;2023-04-25T05:30:03;9.20;;;3.10;;
1479;SDS011;732;51.698;4.886;2023-04-25T05:32:45;9.53;;;3.33;;
1479;SDS011;732;51.698;4.886;2023-04-25T05:35:14;12.13;;;3.93;;
1479;SDS011;732;51.698;4.886;2023-04-25T05:37:47;9.10;;;2.97;;
1479;SDS011;732;51.698;4.886;2023-04-25T05:40:16;10.40;;;2.97;;
1479;SDS011;732;51.698;4.886;2023-04-25T05:43:03;9.77;;;2.67;;
1479;SDS011;732;51.698;4.886;2023-04-25T05:45:42;11.00;;;3.10;;
1479;SDS011;732;51.698;4.886;2023-04-25T05:48:28;13.10;;;2.93;;
1479;SDS011;732;51.698;4.886;2023-04-25T05:51:07;10.50;;;3.87;;
1479;SDS011;732;51.698;4.886;2023-04-25T05:53:56;14.83;;;5.83;;
1479;SDS011;732;51.698;4.886;2023-04-25T05:56:28;16.33;;;5.70;;
1479;SDS011;732;51.698;4.886;2023-04-25T05:58:56;14.70;;;4.03;;
1479;SDS011;732;51.698;4.886;2023-04-25T06:01:25;7.23;;;2.83;;
1479;SDS011;732;51.698;4.886;2023-04-25T06:03:53;15.20;;;3.63;;
1479;SDS011;732;51.698;4.886;2023-04-25T06:06:22;12.07;;;4.50;;
1479;SDS011;732;51.698;4.886;2023-04-25T06:08:50;11.33;;;3.73;;
1479;SDS011;732;51.698;4.886;2023-04-25T06:11:18;16.33;;;5.30;;
1479;SDS011;732;51.698;4.886;2023-04-25T06:13:48;21.87;;;6.60;;
1479;SDS011;732;51.698;4.886;2023-04-25T06:16:16;10.17;;;3.93;;
1479;SDS011;732;51.698;4.886;2023-04-25T06:18:45;7.40;;;2.93;;
1479;SDS011;732;51.698;4.886;2023-04-25T06:21:14;11.43;;;3.30;;
1479;SDS011;732;51.698;4.886;2023-04-25T06:23:43;10.23;;;3.20;;
1479;SDS011;732;51.698;4.886;2023-04-25T06:26:18;11.27;;;3.90;;
1479;SDS011;732;51.698;4.886;2023-04-25T06:28:48;10.33;;;3.20;;
1479;SDS011;732;51.698;4.886;2023-04-25T06:31:16;14.63;;;3.13;;
1479;SDS011;732;51.698;4.886;2023-04-25T06:33:46;6.87;;;2.80;;
1479;SDS011;732;51.698;4.886;2023-04-25T06:36:14;8.97;;;2.77;;
1479;SDS011;732;51.698;4.886;2023-04-25T06:38:46;8.13;;;2.77;;
1479;SDS011;732;51.698;4.886;2023-04-25T06:41:14;12.97;;;3.00;;
1479;SDS011;732;51.698;4.886;2023-04-25T06:43:42;15.17;;;3.27;;
1479;SDS011;732;51.698;4.886;2023-04-25T06:46:24;8.67;;;2.90;;
1479;SDS011;732;51.698;4.886;2023-04-25T06:48:54;12.73;;;2.43;;
1479;SDS011;732;51.698;4.886;2023-04-25T06:51:22;7.57;;;3.00;;
1479;SDS011;732;51.698;4.886;2023-04-25T06:53:53;8.20;;;2.20;;
1479;SDS011;732;51.698;4.886;2023-04-25T06:56:28;11.70;;;3.07;;
1479;SDS011;732;51.698;4.886;2023-04-25T06:59:04;13.30;;;3.87;;
1479;SDS011;732;51.698;4.886;2023-04-25T07:01:37;16.73;;;8.30;;
1479;SDS011;732;51.698;4.886;2023-04-25T07:04:09;21.93;;;9.07;;
1479;SDS011;732;51.698;4.886;2023-04-25T07:06:43;19.67;;;5.80;;
1479;SDS011;732;51.698;4.886;2023-04-25T07:09:16;10.80;;;5.07;;
1479;SDS011;732;51.698;4.886;2023-04-25T07:11:46;16.10;;;4.43;;
1479;SDS011;732;51.698;4.886;2023-04-25T07:14:14;13.10;;;4.37;;
1479;SDS011;732;51.698;4.886;2023-04-25T07:16:45;13.60;;;3.10;;
1479;SDS011;732;51.698;4.886;2023-04-25T07:19:13;10.67;;;3.77;;
1479;SDS011;732;51.698;4.886;2023-04-25T07:21:42;13.57;;;3.90;;
1479;SDS011;732;51.698;4.886;2023-04-25T07:24:12;11.73;;;4.20;;
1479;SDS011;732;51.698;4.886;2023-04-25T07:26:44;7.20;;;2.33;;
1479;SDS011;732;51.698;4.886;2023-04-25T07:29:28;6.67;;;3.80;;
1479;SDS011;732;51.698;4.886;2023-04-25T07:32:00;9.80;;;2.57;;
1479;SDS011;732;51.698;4.886;2023-04-25T07:34:28;3.43;;;1.87;;
1479;SDS011;732;51.698;4.886;2023-04-25T07:36:58;9.37;;;2.60;;
1479;SDS011;732;51.698;4.886;2023-04-25T07:39:33;5.90;;;3.13;;
1479;SDS011;732;51.698;4.886;2023-04-25T07:42:03;10.57;;;3.90;;
1479;SDS011;732;51.698;4.886;2023-04-25T07:44:34;14.70;;;3.03;;
1479;SDS011;732;51.698;4.886;2023-04-25T07:47:08;8.17;;;3.33;;
1479;SDS011;732;51.698;4.886;2023-04-25T07:49:36;10.90;;;2.50;;
1479;SDS011;732;51.698;4.886;2023-04-25T07:52:05;9.70;;;2.77;;
1479;SDS011;732;51.698;4.886;2023-04-25T07:54:36;3.83;;;2.00;;
1479;SDS011;732;51.698;4.886;2023-04-25T07:57:12;5.13;;;1.60;;
1479;SDS011;732;51.698;4.886;2023-04-25T07:59:42;5.20;;;1.70;;
1479;SDS011;732;51.698;4.886;2023-04-25T08:02:13;5.80;;;1.77;;
1479;SDS011;732;51.698;4.886;2023-04-25T08:04:41;6.80;;;1.50;;
1479;SDS011;732;51.698;4.886;2023-04-25T08:07:11;6.80;;;2.13;;
1479;SDS011;732;51.698;4.886;2023-04-25T08:09:51;8.03;;;1.60;;
1479;SDS011;732;51.698;4.886;2023-04-25T08:12:27;6.87;;;1.50;;
1479;SDS011;732;51.698;4.886;2023-04-25T08:14:55;9.73;;;1.90;;
1479;SDS011;732;51.698;4.886;2023-04-25T08:17:29;6.60;;;2.20;;
1479;SDS011;732;51.698;4.886;2023-04-25T08:20:02;11.83;;;2.43;;
1479;SDS011;732;51.698;4.886;2023-04-25T08:22:33;10.30;;;2.10;;
1479;SDS011;732;51.698;4.886;2023-04-25T08:25:15;8.80;;;1.87;;
1479;SDS011;732;51.698;4.886;2023-04-25T08:27:43;4.80;;;2.00;;
1479;SDS011;732;51.698;4.886;2023-04-25T08:30:12;6.87;;;2.00;;
1479;SDS011;732;51.698;4.886;2023-04-25T08:32:46;8.20;;;2.00;;
1479;SDS011;732;51.698;4.886;2023-04-25T08:35:25;8.77;;;1.80;;
1479;SDS011;732;51.698;4.886;2023-04-25T08:37:53;10.00;;;2.03;;
1479;SDS011;732;51.698;4.886;2023-04-25T08:40:23;10.80;;;1.93;;
1479;SDS011;732;51.698;4.886;2023-04-25T08:43:01;6.93;;;1.97;;
1479;SDS011;732;51.698;4.886;2023-04-25T08:45:31;9.73;;;2.23;;
1479;SDS011;732;51.698;4.886;2023-04-25T08:48:02;6.50;;;1.63;;
1479;SDS011;732;51.698;4.886;2023-04-25T08:50:35;5.40;;;1.73;;
1479;SDS011;732;51.698;4.886;2023-04-25T08:53:06;3.87;;;1.60;;
1479;SDS011;732;51.698;4.886;2023-04-25T08:55:42;4.67;;;1.37;;
1479;SDS011;732;51.698;4.886;2023-04-25T08:58:12;12.50;;;2.40;;
1479;SDS011;732;51.698;4.886;2023-04-25T09:00:42;7.07;;;2.27;;
1479;SDS011;732;51.698;4.886;2023-04-25T09:03:15;8.00;;;1.50;;
1479;SDS011;732;51.698;4.886;2023-04-25T09:05:46;6.87;;;1.77;;
1479;SDS011;732;51.698;4.886;2023-04-25T09:08:16;6.93;;;1.60;;
1479;SDS011;732;51.698;4.886;2023-04-25T09:10:45;10.37;;;2.23;;
1479;SDS011;732;51.698;4.886;2023-04-25T09:13:13;5.97;;;1.63;;
1479;SDS011;732;51.698;4.886;2023-04-25T09:16:19;8.30;;;1.83;;
1479;SDS011;732;51.698;4.886;2023-04-25T09:19:08;6.87;;;2.10;;
1479;SDS011;732;51.698;4.886;2023-04-25T09:22:10;7.47;;;1.87;;
1479;SDS011;732;51.698;4.886;2023-04-25T09:24:39;5.27;;;2.13;;
1479;SDS011;732;51.698;4.886;2023-04-25T09:27:10;5.73;;;1.97;;
1479;SDS011;732;51.698;4.886;2023-04-25T09:29:40;5.03;;;1.93;;
1479;SDS011;732;51.698;4.886;2023-04-25T09:32:15;5.63;;;1.80;;
1479;SDS011;732;51.698;4.886;2023-04-25T09:34:51;8.70;;;1.97;;
1479;SDS011;732;51.698;4.886;2023-04-25T09:37:22;7.50;;;1.60;;
1479;SDS011;732;51.698;4.886;2023-04-25T09:40:10;9.57;;;1.60;;
1479;SDS011;732;51.698;4.886;2023-04-25T09:42:51;4.30;;;1.20;;
1479;SDS011;732;51.698;4.886;2023-04-25T09:45:20;7.87;;;1.80;;
1479;SDS011;732;51.698;4.886;2023-04-25T09:47:48;6.50;;;1.80;;
1479;SDS011;732;51.698;4.886;2023-04-25T09:50:24;5.47;;;1.93;;
1479;SDS011;732;51.698;4.886;2023-04-25T09:53:02;2.77;;;1.50;;
1479;SDS011;732;51.698;4.886;2023-04-25T09:55:52;7.87;;;1.57;;
1479;SDS011;732;51.698;4.886;2023-04-25T09:58:20;6.60;;;2.00;;
1479;SDS011;732;51.698;4.886;2023-04-25T10:00:50;5.90;;;1.77;;
1479;SDS011;732;51.698;4.886;2023-04-25T10:03:31;7.20;;;2.17;;
1479;SDS011;732;51.698;4.886;2023-04-25T10:06:23;8.73;;;1.97;;
1479;SDS011;732;51.698;4.886;2023-04-25T10:08:52;7.00;;;2.10;;
1479;SDS011;732;51.698;4.886;2023-04-25T10:11:22;5.33;;;2.13;;
1479;SDS011;732;51.698;4.886;2023-04-25T10:13:53;7.07;;;1.60;;
1479;SDS011;732;51.698;4.886;2023-04-25T10:16:23;3.63;;;1.30;;
1479;SDS011;732;51.698;4.886;2023-04-25T10:18:52;3.87;;;1.60;;
1479;SDS011;732;51.698;4.886;2023-04-25T10:21:21;4.83;;;1.50;;
1479;SDS011;732;51.698;4.886;2023-04-25T10:23:53;7.00;;;1.70;;
1479;SDS011;732;51.698;4.886;2023-04-25T10:26:21;6.00;;;1.60;;
1479;SDS011;732;51.698;4.886;2023-04-25T10:28:54;6.13;;;1.33;;
1479;SDS011;732;51.698;4.886;2023-04-25T10:31:23;6.27;;;1.30;;
1479;SDS011;732;51.698;4.886;2023-04-25T10:33:52;4.30;;;1.50;;
1479;SDS011;732;51.698;4.886;2023-04-25T10:36:22;6.27;;;1.57;;
1479;SDS011;732;51.698;4.886;2023-04-25T10:38:53;11.00;;;4.50;;
1479;SDS011;732;51.698;4.886;2023-04-25T10:41:21;9.57;;;3.67;;
1479;SDS011;732;51.698;4.886;2023-04-25T10:43:50;11.33;;;3.47;;
1479;SDS011;732;51.698;4.886;2023-04-25T10:46:28;9.73;;;3.00;;
1479;SDS011;732;51.698;4.886;2023-04-25T10:48:58;7.10;;;2.00;;
1479;SDS011;732;51.698;4.886;2023-04-25T10:51:29;6.73;;;2.07;;
1479;SDS011;732;51.698;4.886;2023-04-25T10:54:20;8.37;;;3.20;;
1479;SDS011;732;51.698;4.886;2023-04-25T10:56:52;4.37;;;1.70;;
1479;SDS011;732;51.698;4.886;2023-04-25T10:59:20;5.63;;;2.40;;
1479;SDS011;732;51.698;4.886;2023-04-25T11:01:54;9.77;;;3.30;;
1479;SDS011;732;51.698;4.886;2023-04-25T11:04:24;5.57;;;2.13;;
1479;SDS011;732;51.698;4.886;2023-04-25T11:07:00;4.90;;;1.53;;
1479;SDS011;732;51.698;4.886;2023-04-25T11:09:38;5.23;;;2.27;;
1479;SDS011;732;51.698;4.886;2023-04-25T11:12:08;4.70;;;1.67;;
1479;SDS011;732;51.698;4.886;2023-04-25T11:14:38;9.03;;;3.50;;
1479;SDS011;732;51.698;4.886;2023-04-25T11:17:11;8.43;;;2.37;;
1479;SDS011;732;51.698;4.886;2023-04-25T11:19:41;2.43;;;1.63;;
1479;SDS011;732;51.698;4.886;2023-04-25T11:22:11;2.67;;;1.60;;
1479;SDS011;732;51.698;4.886;2023-04-25T11:24:39;5.27;;;1.30;;
1479;SDS011;732;51.698;4.886;2023-04-25T11:27:09;10.40;;;1.70;;
1479;SDS011;732;51.698;4.886;2023-04-25T11:29:37;3.73;;;1.93;;
1479;SDS011;732;51.698;4.886;2023-04-25T11:32:05;3.07;;;1.20;;
1479;SDS011;732;51.698;4.886;2023-04-25T11:34:34;5.37;;;1.40;;
1479;SDS011;732;51.698;4.886;2023-04-25T11:37:03;5.27;;;1.40;;
1479;SDS011;732;51.698;4.886;2023-04-25T11:39:33;5.67;;;1.80;;
1479;SDS011;732;51.698;4.886;2023-04-25T11:42:02;3.90;;;1.70;;
1479;SDS011;732;51.698;4.886;2023-04-25T11:44:39;3.60;;;1.43;;
1479;SDS011;732;51.698;4.886;2023-04-25T11:47:08;6.37;;;1.63;;
1479;SDS011;732;51.698;4.886;2023-04-25T11:49:36;5.90;;;1.83;;
1479;SDS011;732;51.698;4.886;2023-04-25T11:52:05;9.43;;;1.77;;
1479;SDS011;732;51.698;4.886;2023-04-25T11:54:36;11.77;;;1.93;;
1479;SDS011;732;51.698;4.886;2023-04-25T11:57:05;10.33;;;1.73;;
1479;SDS011;732;51.698;4.886;2023-04-25T11:59:33;3.73;;;1.50;;
1479;SDS011;732;51.698;4.886;2023-04-25T12:02:01;6.80;;;1.50;;
1479;SDS011;732;51.698;4.886;2023-04-25T12:04:30;3.83;;;1.97;;
1479;SDS011;732;51.698;4.886;2023-04-25T12:06:59;4.30;;;1.33;;
1479;SDS011;732;51.698;4.886;2023-04-25T12:09:29;6.10;;;1.73;;
1479;SDS011;732;51.698;4.886;2023-04-25T12:12:00;5.83;;;1.73;;
1479;SDS011;732;51.698;4.886;2023-04-25T12:14:30;6.30;;;1.40;;
1479;SDS011;732;51.698;4.886;2023-04-25T12:17:02;5.60;;;1.60;;
1479;SDS011;732;51.698;4.886;2023-04-25T12:19:35;7.93;;;1.57;;
1479;SDS011;732;51.698;4.886;2023-04-25T12:22:18;6.07;;;1.90;;
1479;SDS011;732;51.698;4.886;2023-04-25T12:24:48;6.03;;;2.17;;
1479;SDS011;732;51.698;4.886;2023-04-25T12:27:20;4.03;;;1.73;;
1479;SDS011;732;51.698;4.886;2023-04-25T12:29:52;4.57;;;1.37;;
1479;SDS011;732;51.698;4.886;2023-04-25T12:32:22;5.33;;;1.80;;
1479;SDS011;732;51.698;4.886;2023-04-25T12:34:51;14.70;;;2.70;;
1479;SDS011;732;51.698;4.886;2023-04-25T12:37:19;4.23;;;1.43;;
1479;SDS011;732;51.698;4.886;2023-04-25T12:39:47;6.67;;;2.37;;
1479;SDS011;732;51.698;4.886;2023-04-25T12:42:16;5.80;;;1.60;;
1479;SDS011;732;51.698;4.886;2023-04-25T12:44:45;3.03;;;1.37;;
1479;SDS011;732;51.698;4.886;2023-04-25T12:47:14;9.57;;;1.47;;
1479;SDS011;732;51.698;4.886;2023-04-25T12:49:42;7.10;;;1.50;;
1479;SDS011;732;51.698;4.886;2023-04-25T12:52:10;3.93;;;1.30;;
1479;SDS011;732;51.698;4.886;2023-04-25T12:54:38;11.80;;;2.00;;
1479;SDS011;732;51.698;4.886;2023-04-25T12:57:06;6.13;;;1.70;;
1479;SDS011;732;51.698;4.886;2023-04-25T12:59:35;6.43;;;1.67;;
1479;SDS011;732;51.698;4.886;2023-04-25T13:02:04;3.50;;;1.60;;
1479;SDS011;732;51.698;4.886;2023-04-25T13:04:33;4.53;;;1.23;;
1479;SDS011;732;51.698;4.886;2023-04-25T13:07:01;4.40;;;1.53;;
1479;SDS011;732;51.698;4.886;2023-04-25T13:09:29;4.30;;;2.07;;
1479;SDS011;732;51.698;4.886;2023-04-25T13:11:58;3.97;;;1.60;;
1479;SDS011;732;51.698;4.886;2023-04-25T13:14:26;5.50;;;1.80;;
1479;SDS011;732;51.698;4.886;2023-04-25T13:16:54;5.27;;;1.70;;
1479;SDS011;732;51.698;4.886;2023-04-25T13:19:24;7.83;;;2.70;;
1479;SDS011;732;51.698;4.886;2023-04-25T13:21:52;4.33;;;1.80;;
1479;SDS011;732;51.698;4.886;2023-04-25T13:24:20;9.57;;;2.40;;
1479;SDS011;732;51.698;4.886;2023-04-25T13:26:50;5.37;;;1.40;;
1479;SDS011;732;51.698;4.886;2023-04-25T13:29:18;3.53;;;1.27;;
1479;SDS011;732;51.698;4.886;2023-04-25T13:31:46;3.63;;;1.40;;
1479;SDS011;732;51.698;4.886;2023-04-25T13:34:15;5.20;;;1.30;;
1479;SDS011;732;51.698;4.886;2023-04-25T13:36:44;5.73;;;1.50;;
1479;SDS011;732;51.698;4.886;2023-04-25T13:39:12;2.50;;;1.60;;
1479;SDS011;732;51.698;4.886;2023-04-25T13:41:41;2.80;;;1.30;;
1479;SDS011;732;51.698;4.886;2023-04-25T13:44:09;4.10;;;1.37;;
1479;SDS011;732;51.698;4.886;2023-04-25T13:46:37;7.17;;;1.90;;
1479;SDS011;732;51.698;4.886;2023-04-25T13:49:12;3.07;;;1.37;;
1479;SDS011;732;51.698;4.886;2023-04-25T13:51:41;3.20;;;1.60;;
1479;SDS011;732;51.698;4.886;2023-04-25T13:54:11;6.37;;;2.23;;
1479;SDS011;732;51.698;4.886;2023-04-25T13:56:39;4.47;;;1.40;;
1479;SDS011;732;51.698;4.886;2023-04-25T13:59:08;8.70;;;2.33;;
1479;SDS011;732;51.698;4.886;2023-04-25T14:01:37;4.70;;;1.80;;
1479;SDS011;732;51.698;4.886;2023-04-25T14:04:05;6.00;;;1.50;;
1479;SDS011;732;51.698;4.886;2023-04-25T14:06:33;8.57;;;2.20;;
1479;SDS011;732;51.698;4.886;2023-04-25T14:09:02;14.20;;;3.60;;
1479;SDS011;732;51.698;4.886;2023-04-25T14:11:32;7.60;;;2.10;;
1479;SDS011;732;51.698;4.886;2023-04-25T14:14:00;12.00;;;2.30;;
1479;SDS011;732;51.698;4.886;2023-04-25T14:16:29;5.03;;;1.73;;
1479;SDS011;732;51.698;4.886;2023-04-25T14:18:57;6.67;;;1.37;;
1479;SDS011;732;51.698;4.886;2023-04-25T14:21:26;4.27;;;1.50;;
1479;SDS011;732;51.698;4.886;2023-04-25T14:23:55;7.33;;;1.80;;
1479;SDS011;732;51.698;4.886;2023-04-25T14:26:23;3.83;;;1.60;;
1479;SDS011;732;51.698;4.886;2023-04-25T14:28:53;2.33;;;1.70;;
1479;SDS011;732;51.698;4.886;2023-04-25T14:31:21;4.20;;;1.83;;
1479;SDS011;732;51.698;4.886;2023-04-25T14:33:49;6.00;;;1.80;;
1479;SDS011;732;51.698;4.886;2023-04-25T14:36:18;5.80;;;1.50;;
1479;SDS011;732;51.698;4.886;2023-04-25T14:38:46;6.67;;;1.90;;
1479;SDS011;732;51.698;4.886;2023-04-25T14:41:15;6.57;;;1.80;;
1479;SDS011;732;51.698;4.886;2023-04-25T14:43:43;5.70;;;2.07;;
1479;SDS011;732;51.698;4.886;2023-04-25T14:46:12;9.23;;;2.40;;
1479;SDS011;732;51.698;4.886;2023-04-25T14:48:41;8.03;;;3.43;;
1479;SDS011;732;51.698;4.886;2023-04-25T14:51:09;16.70;;;5.77;;
1479;SDS011;732;51.698;4.886;2023-04-25T14:53:38;14.03;;;3.50;;
1479;SDS011;732;51.698;4.886;2023-04-25T14:56:07;13.93;;;4.90;;
1479;SDS011;732;51.698;4.886;2023-04-25T14:58:35;16.13;;;6.10;;
1479;SDS011;732;51.698;4.886;2023-04-25T15:01:05;21.13;;;4.80;;
1479;SDS011;732;51.698;4.886;2023-04-25T15:03:35;7.30;;;2.57;;
1479;SDS011;732;51.698;4.886;2023-04-25T15:06:04;9.73;;;2.63;;
1479;SDS011;732;51.698;4.886;2023-04-25T15:08:33;6.50;;;2.03;;
1479;SDS011;732;51.698;4.886;2023-04-25T15:11:02;5.50;;;1.90;;
1479;SDS011;732;51.698;4.886;2023-04-25T15:13:31;5.90;;;2.23;;
1479;SDS011;732;51.698;4.886;2023-04-25T15:16:01;7.47;;;3.30;;
1479;SDS011;732;51.698;4.886;2023-04-25T15:18:29;8.57;;;2.50;;
1479;SDS011;732;51.698;4.886;2023-04-25T15:21:01;6.13;;;1.80;;
1479;SDS011;732;51.698;4.886;2023-04-25T15:23:30;9.77;;;2.33;;
1479;SDS011;732;51.698;4.886;2023-04-25T15:25:58;6.87;;;1.60;;
1479;SDS011;732;51.698;4.886;2023-04-25T15:28:27;9.73;;;2.00;;
1479;SDS011;732;51.698;4.886;2023-04-25T15:30:55;4.43;;;1.70;;
1479;SDS011;732;51.698;4.886;2023-04-25T15:33:24;6.10;;;1.50;;
1479;SDS011;732;51.698;4.886;2023-04-25T15:35:52;6.23;;;1.97;;
1479;SDS011;732;51.698;4.886;2023-04-25T15:38:24;2.93;;;1.40;;
1479;SDS011;732;51.698;4.886;2023-04-25T15:40:55;5.47;;;2.50;;
1479;SDS011;732;51.698;4.886;2023-04-25T15:43:25;4.47;;;1.97;;
1479;SDS011;732;51.698;4.886;2023-04-25T15:45:53;7.80;;;1.93;;
1479;SDS011;732;51.698;4.886;2023-04-25T15:48:22;6.73;;;2.00;;
1479;SDS011;732;51.698;4.886;2023-04-25T15:50:50;9.50;;;2.87;;
1479;SDS011;732;51.698;4.886;2023-04-25T15:53:18;5.57;;;2.23;;